Time;durP1;ratioP1;P1;durP2;ratioP2;P2;SDS_P1;SDS_P2;PMS_P1;PMS_P2;Temp;Humidity;BMP_temperature;BMP_pressure;BME280_temperature;BME280_humidity;BME280_pressure;Samples;Min_cycle;Max_cycle;Signal;HPM_P1;HPM_P2
2021/10/04 00:02:00;;;;;;;2.97;1.33;;;13.40;99.90;;;;;;5038761;28;20528;-82
2021/10/04 00:04:28;;;;;;;3.08;1.60;;;13.40;99.90;;;;;;5038874;28;20176;-81
2021/10/04 00:06:53;;;;;;;3.35;1.75;;;13.50;99.90;;;;;;5039061;28;20648;-78
2021/10/04 00:09:19;;;;;;;1.88;1.38;;;13.40;99.90;;;;;;5037544;28;20266;-80
2021/10/04 00:11:45;;;;;;;7.18;2.10;;;13.40;99.90;;;;;;5038725;28;20171;-81
2021/10/04 00:14:10;;;;;;;2.80;1.85;;;13.40;99.90;;;;;;5038753;28;20175;-81
2021/10/04 00:16:37;;;;;;;1.50;1.40;;;13.50;99.90;;;;;;5038811;28;20187;-80
2021/10/04 00:19:03;;;;;;;2.53;1.33;;;13.50;99.90;;;;;;5037130;28;20207;-82
2021/10/04 00:21:29;;;;;;;2.75;1.60;;;13.60;99.90;;;;;;5037404;28;20603;-81
2021/10/04 00:23:55;;;;;;;4.30;1.85;;;13.60;99.90;;;;;;5036256;28;20196;-81
2021/10/04 00:26:20;;;;;;;1.83;1.50;;;13.60;99.90;;;;;;5035379;28;20195;-79
2021/10/04 00:28:46;;;;;;;1.88;1.35;;;13.60;99.90;;;;;;5035377;28;20566;-80
2021/10/04 00:31:12;;;;;;;1.58;1.20;;;13.60;99.90;;;;;;5036464;28;20179;-82
2021/10/04 00:33:38;;;;;;;1.48;1.00;;;13.60;99.90;;;;;;5035046;28;20171;-79
2021/10/04 00:36:04;;;;;;;2.33;0.80;;;13.50;99.90;;;;;;5035204;28;20632;-79
2021/10/04 00:38:29;;;;;;;1.70;0.85;;;13.60;99.90;;;;;;5034859;28;20310;-82
2021/10/04 00:40:55;;;;;;;7.85;1.00;;;13.60;99.90;;;;;;5035067;28;20171;-77
2021/10/04 00:43:21;;;;;;;0.77;0.77;;;13.70;99.90;;;;;;5035630;28;20168;-83
2021/10/04 00:45:48;;;;;;;3.00;1.30;;;13.60;99.90;;;;;;5035134;28;20172;-81
2021/10/04 00:48:14;;;;;;;3.08;1.17;;;13.50;99.90;;;;;;5034998;28;20164;-81
2021/10/04 00:50:39;;;;;;;2.42;0.77;;;13.50;99.90;;;;;;5034991;28;20727;-80
2021/10/04 00:53:05;;;;;;;1.48;0.70;;;13.60;99.90;;;;;;5034853;28;20171;-80
2021/10/04 00:55:31;;;;;;;6.07;0.93;;;13.50;99.90;;;;;;5034863;28;20255;-85
2021/10/04 00:57:58;;;;;;;1.25;0.80;;;13.50;99.90;;;;;;5035069;28;20195;-77
2021/10/04 01:00:26;;;;;;;4.35;0.93;;;13.40;99.90;;;;;;5035511;28;20196;-79
2021/10/04 01:02:52;;;;;;;2.05;0.90;;;13.50;99.90;;;;;;5034979;28;20529;-79
2021/10/04 01:05:18;;;;;;;3.95;0.80;;;13.50;99.90;;;;;;5035195;28;20251;-84
2021/10/04 01:07:44;;;;;;;1.08;0.65;;;13.60;99.90;;;;;;5035347;28;20182;-79
2021/10/04 01:10:12;;;;;;;1.27;0.90;;;13.60;99.90;;;;;;5034783;28;20191;-81
2021/10/04 01:12:43;;;;;;;1.88;0.82;;;13.50;99.90;;;;;;5034713;28;20160;-79
2021/10/04 01:15:11;;;;;;;0.75;0.60;;;13.50;99.90;;;;;;5034284;28;20635;-79
2021/10/04 01:17:37;;;;;;;0.75;0.50;;;13.70;99.90;;;;;;5034380;28;20259;-80
2021/10/04 01:20:15;;;;;;;1.05;0.73;;;13.70;99.90;;;;;;5034534;28;20266;-79
2021/10/04 01:22:41;;;;;;;1.27;0.75;;;13.60;99.90;;;;;;5034056;28;20195;-78
2021/10/04 01:25:07;;;;;;;3.25;0.77;;;13.70;99.90;;;;;;5034178;28;20164;-82
2021/10/04 01:27:34;;;;;;;0.65;0.60;;;13.70;99.90;;;;;;5034587;28;20175;-81
2021/10/04 01:29:59;;;;;;;1.88;0.93;;;13.60;99.90;;;;;;5034425;28;20183;-84
2021/10/04 01:32:25;;;;;;;3.15;1.00;;;13.50;99.90;;;;;;5034567;28;20172;-81
2021/10/04 01:34:55;;;;;;;0.95;0.60;;;13.60;99.90;;;;;;5034383;28;20611;-81
2021/10/04 01:37:21;;;;;;;8.65;0.80;;;13.40;99.90;;;;;;5034335;28;20190;-79
2021/10/04 01:39:46;;;;;;;1.75;0.60;;;13.40;99.90;;;;;;5034553;28;20527;-83
2021/10/04 01:42:12;;;;;;;1.75;0.73;;;13.40;99.90;;;;;;5033215;28;20164;-77
2021/10/04 01:44:38;;;;;;;1.50;0.70;;;13.50;99.90;;;;;;5033024;28;20179;-82
2021/10/04 01:47:03;;;;;;;3.72;0.88;;;13.70;99.90;;;;;;5034082;28;20707;-82
2021/10/04 01:49:29;;;;;;;1.80;0.80;;;13.70;99.90;;;;;;5033828;28;20187;-81
2021/10/04 01:51:55;;;;;;;1.60;0.82;;;13.60;99.90;;;;;;5034429;28;20643;-81
2021/10/04 01:54:20;;;;;;;1.58;1.25;;;13.60;99.90;;;;;;5032857;28;20183;-83
2021/10/04 01:56:46;;;;;;;0.68;0.60;;;13.60;99.90;;;;;;5033701;28;20651;-80
2021/10/04 01:59:12;;;;;;;0.77;0.70;;;13.60;99.90;;;;;;5033524;28;20267;-79
2021/10/04 02:01:37;;;;;;;1.67;0.88;;;13.50;99.90;;;;;;5033458;28;20691;-82
2021/10/04 02:04:03;;;;;;;2.20;0.90;;;13.30;99.90;;;;;;5033860;28;20259;-80
2021/10/04 02:06:29;;;;;;;1.13;0.80;;;13.30;99.90;;;;;;5033833;28;20151;-80
2021/10/04 02:08:54;;;;;;;2.83;0.60;;;13.20;99.90;;;;;;5033393;28;20282;-81
2021/10/04 02:11:20;;;;;;;4.05;0.88;;;13.40;99.90;;;;;;5033532;28;20518;-78
2021/10/04 02:13:45;;;;;;;1.30;0.65;;;13.50;99.90;;;;;;5033410;28;20226;-82
2021/10/04 02:16:11;;;;;;;4.03;0.90;;;13.50;99.90;;;;;;5033405;28;20243;-82
2021/10/04 02:18:37;;;;;;;1.80;0.88;;;13.50;99.90;;;;;;5033148;28;20671;-84
2021/10/04 02:21:02;;;;;;;0.77;0.47;;;13.50;99.90;;;;;;5033470;28;20640;-78
2021/10/04 02:23:28;;;;;;;1.20;0.80;;;13.40;99.90;;;;;;5033965;28;20182;-80
2021/10/04 02:25:54;;;;;;;1.58;0.88;;;13.40;99.90;;;;;;5033321;28;20166;-79
2021/10/04 02:28:20;;;;;;;2.05;0.85;;;13.40;99.90;;;;;;5033367;28;20172;-81
2021/10/04 02:30:47;;;;;;;1.40;0.80;;;13.40;99.90;;;;;;5033147;28;20180;-77
2021/10/04 02:33:13;;;;;;;1.58;0.98;;;13.40;99.90;;;;;;5033730;28;20253;-78
2021/10/04 02:35:39;;;;;;;1.65;0.82;;;13.40;99.90;;;;;;5033191;28;20652;-80
2021/10/04 02:38:06;;;;;;;2.08;0.90;;;13.40;99.90;;;;;;5033401;28;20195;-77
2021/10/04 02:40:32;;;;;;;3.35;0.73;;;13.40;99.90;;;;;;5033183;28;20570;-81
2021/10/04 02:42:58;;;;;;;4.82;0.80;;;13.30;99.90;;;;;;5033360;28;20188;-81
2021/10/04 02:45:24;;;;;;;11.18;0.90;;;13.10;99.90;;;;;;5033080;28;20280;-79
2021/10/04 02:47:53;;;;;;;2.22;0.75;;;13.30;99.90;;;;;;5032621;28;20290;-76
2021/10/04 02:50:24;;;;;;;2.92;0.70;;;13.30;99.90;;;;;;5032911;28;20200;-82
2021/10/04 02:52:50;;;;;;;3.35;0.90;;;13.40;99.90;;;;;;5031967;28;20674;-81
2021/10/04 02:55:15;;;;;;;4.53;0.95;;;13.40;99.90;;;;;;5031926;28;20179;-76
2021/10/04 02:57:42;;;;;;;3.25;0.73;;;13.40;99.90;;;;;;5032824;28;20519;-81
2021/10/04 03:00:10;;;;;;;3.72;1.08;;;13.40;99.90;;;;;;5032771;28;20210;-84
2021/10/04 03:02:36;;;;;;;1.58;0.85;;;13.40;99.90;;;;;;5032721;28;20168;-82
2021/10/04 03:05:02;;;;;;;2.38;0.88;;;13.20;99.90;;;;;;5032689;28;20175;-81
2021/10/04 03:07:28;;;;;;;0.65;0.50;;;13.30;99.90;;;;;;5032802;28;20172;-83
2021/10/04 03:09:53;;;;;;;1.23;0.60;;;13.40;99.90;;;;;;5032798;28;20198;-81
2021/10/04 03:12:19;;;;;;;5.53;1.00;;;13.40;99.90;;;;;;5032787;28;20170;-83
2021/10/04 03:14:46;;;;;;;1.55;0.80;;;13.30;99.90;;;;;;5032775;28;20168;-81
2021/10/04 03:17:11;;;;;;;2.72;0.88;;;13.40;99.90;;;;;;5032712;28;20690;-78
2021/10/04 03:19:37;;;;;;;9.68;0.88;;;13.30;99.90;;;;;;5032085;28;20215;-82
2021/10/04 03:22:03;;;;;;;3.22;1.58;;;13.30;99.90;;;;;;5032621;28;20164;-85
2021/10/04 03:24:29;;;;;;;0.85;0.85;;;13.20;99.90;;;;;;5032780;28;20179;-81
2021/10/04 03:26:55;;;;;;;3.17;0.85;;;13.30;99.90;;;;;;5032546;28;20168;-78
2021/10/04 03:29:20;;;;;;;2.53;0.80;;;13.30;99.90;;;;;;5032585;28;20195;-78
2021/10/04 03:31:46;;;;;;;3.28;0.82;;;13.40;99.90;;;;;;5032468;28;20171;-81
2021/10/04 03:34:12;;;;;;;8.13;1.33;;;13.40;99.90;;;;;;5032406;28;20270;-81
2021/10/04 03:36:39;;;;;;;2.38;0.80;;;13.30;99.90;;;;;;5032470;28;20663;-81
2021/10/04 03:39:06;;;;;;;4.75;0.98;;;13.30;99.90;;;;;;5032363;28;20259;-83
2021/10/04 03:41:32;;;;;;;3.33;0.73;;;13.30;99.90;;;;;;5032490;28;20222;-82
2021/10/04 03:43:58;;;;;;;1.45;0.90;;;13.30;99.90;;;;;;5032130;28;20176;-78
2021/10/04 03:46:24;;;;;;;5.05;0.90;;;13.20;99.90;;;;;;5032549;28;20167;-77
2021/10/04 03:48:50;;;;;;;7.13;1.40;;;13.20;99.90;;;;;;5032020;28;20548;-80
2021/10/04 03:51:16;;;;;;;1.40;0.98;;;13.10;99.90;;;;;;5032086;28;20568;-77
2021/10/04 03:53:41;;;;;;;5.55;1.10;;;12.90;99.90;;;;;;5032490;28;20183;-81
2021/10/04 03:56:07;;;;;;;10.43;1.10;;;12.90;99.90;;;;;;5032507;28;20636;-79
2021/10/04 03:58:33;;;;;;;2.58;1.00;;;12.90;99.90;;;;;;5031003;28;20238;-78
2021/10/04 04:00:59;;;;;;;1.55;0.80;;;12.80;99.90;;;;;;5036029;28;20164;-80
2021/10/04 04:03:24;;;;;;;2.53;1.42;;;12.80;99.90;;;;;;5035045;28;20255;-78
2021/10/04 04:05:50;;;;;;;1.38;0.77;;;12.90;99.90;;;;;;5034680;28;20168;-81
2021/10/04 04:08:15;;;;;;;4.28;0.98;;;13.00;99.90;;;;;;5035850;28;20175;-83
2021/10/04 04:10:41;;;;;;;4.40;1.17;;;12.90;99.90;;;;;;5035695;28;20195;-80
2021/10/04 04:13:07;;;;;;;1.98;1.10;;;13.00;99.90;;;;;;5035851;28;20647;-78
2021/10/04 04:15:32;;;;;;;4.43;1.25;;;12.90;99.90;;;;;;5034433;28;20186;-79
2021/10/04 04:17:58;;;;;;;2.35;1.20;;;12.90;99.90;;;;;;5035608;28;20207;-82
2021/10/04 04:20:24;;;;;;;10.50;1.60;;;13.00;99.90;;;;;;5035817;28;20664;-78
2021/10/04 04:22:49;;;;;;;3.17;1.10;;;12.80;99.90;;;;;;5035698;28;20247;-84
2021/10/04 04:25:15;;;;;;;11.07;1.75;;;12.70;99.90;;;;;;5035951;28;20645;-81
2021/10/04 04:27:41;;;;;;;2.55;1.80;;;12.70;99.90;;;;;;5035589;28;20247;-82
2021/10/04 04:30:09;;;;;;;3.05;1.88;;;12.80;99.90;;;;;;5035450;28;20195;-79
2021/10/04 04:32:35;;;;;;;3.20;2.03;;;12.90;99.90;;;;;;5035653;28;20170;-82
2021/10/04 04:35:05;;;;;;;4.22;1.92;;;12.80;99.90;;;;;;5035339;28;20179;-79
2021/10/04 04:37:38;;;;;;;4.68;2.25;;;12.70;99.90;;;;;;5035345;28;20664;-84
2021/10/04 04:40:06;;;;;;;5.13;1.98;;;12.60;99.90;;;;;;5035616;28;20192;-80
2021/10/04 04:42:32;;;;;;;7.65;2.08;;;12.60;99.90;;;;;;5035643;28;20172;-82
2021/10/04 04:44:58;;;;;;;6.72;2.25;;;12.40;99.90;;;;;;5035070;28;20161;-81
2021/10/04 04:47:24;;;;;;;3.40;2.00;;;12.50;99.90;;;;;;5034963;28;20230;-80
2021/10/04 04:49:49;;;;;;;3.25;1.80;;;12.60;99.90;;;;;;5034781;28;20553;-83
2021/10/04 04:52:15;;;;;;;2.03;1.52;;;12.60;99.90;;;;;;5035079;28;20247;-81
2021/10/04 04:54:41;;;;;;;2.70;1.70;;;12.60;99.90;;;;;;5035059;28;20164;-80
2021/10/04 04:57:06;;;;;;;9.57;2.15;;;12.70;99.90;;;;;;5033476;28;20228;-82
2021/10/04 04:59:33;;;;;;;10.10;1.63;;;12.40;99.90;;;;;;5034657;28;20265;-78
2021/10/04 05:01:59;;;;;;;6.15;2.90;;;12.60;99.90;;;;;;5034821;28;20531;-78
2021/10/04 05:04:25;;;;;;;3.63;1.83;;;12.70;99.90;;;;;;5034506;28;20171;-82
2021/10/04 05:06:50;;;;;;;2.13;1.58;;;12.50;99.90;;;;;;5033311;28;20175;-84
2021/10/04 05:09:16;;;;;;;3.35;1.50;;;12.60;99.90;;;;;;5034680;28;20199;-80
2021/10/04 05:11:42;;;;;;;2.72;1.23;;;12.60;99.90;;;;;;5034481;28;20537;-84
2021/10/04 05:14:08;;;;;;;6.07;1.30;;;12.60;99.90;;;;;;5033186;28;20182;-82
2021/10/04 05:16:34;;;;;;;2.22;1.20;;;12.50;99.90;;;;;;5034302;28;20164;-84
2021/10/04 05:18:59;;;;;;;2.28;1.42;;;12.50;99.90;;;;;;5034231;28;20739;-81
2021/10/04 05:21:25;;;;;;;4.78;1.40;;;12.40;99.90;;;;;;5034489;28;20168;-84
2021/10/04 05:23:51;;;;;;;5.68;1.10;;;12.50;99.90;;;;;;5034409;28;20168;-80
2021/10/04 05:26:16;;;;;;;2.85;1.40;;;12.50;99.90;;;;;;5034552;28;20210;-84
2021/10/04 05:28:42;;;;;;;4.88;2.42;;;12.50;99.90;;;;;;5033971;28;20251;-78
2021/10/04 05:31:07;;;;;;;1.67;0.90;;;12.60;99.90;;;;;;5034117;28;20192;-81
2021/10/04 05:33:33;;;;;;;1.30;1.20;;;12.50;99.90;;;;;;5050582;22;20156;-83
2021/10/04 05:35:59;;;;;;;2.80;1.63;;;12.30;99.90;;;;;;4997213;28;20192;-85
2021/10/04 05:38:25;;;;;;;1.63;0.95;;;12.30;99.90;;;;;;5015334;28;20219;-81
2021/10/04 05:40:51;;;;;;;4.95;1.23;;;12.30;99.90;;;;;;5015782;28;20250;-85
2021/10/04 05:43:16;;;;;;;4.25;1.15;;;12.40;99.90;;;;;;5016681;28;20161;-84
2021/10/04 05:45:42;;;;;;;4.88;1.00;;;12.30;99.90;;;;;;5017303;28;20697;-84
2021/10/04 05:48:08;;;;;;;8.60;1.48;;;12.20;99.90;;;;;;5016548;28;20251;-81
2021/10/04 05:50:33;;;;;;;6.38;0.88;;;12.20;99.90;;;;;;5014551;28;20276;-85
2021/10/04 05:52:59;;;;;;;6.60;1.00;;;12.10;99.90;;;;;;5014724;28;20204;-80
2021/10/04 05:55:25;;;;;;;4.35;1.10;;;12.00;99.90;;;;;;5014456;28;20191;-79
2021/10/04 05:57:51;;;;;;;2.33;0.80;;;12.10;99.90;;;;;;5014538;28;20196;-76
2021/10/04 06:00:17;;;;;;;3.35;1.48;;;12.10;99.90;;;;;;5013536;28;20192;-78
2021/10/04 06:02:43;;;;;;;15.02;1.13;;;12.20;99.90;;;;;;5012038;28;20530;-78
2021/10/04 06:05:09;;;;;;;7.75;1.08;;;12.20;99.90;;;;;;5014217;28;20528;-78
2021/10/04 06:07:35;;;;;;;3.10;0.88;;;12.20;99.90;;;;;;5013732;28;20169;-78
2021/10/04 06:10:03;;;;;;;4.75;1.40;;;12.30;99.90;;;;;;5012078;28;20192;-80
2021/10/04 06:12:28;;;;;;;8.20;1.35;;;12.50;99.90;;;;;;5013431;28;20684;-77
2021/10/04 06:14:58;;;;;;;3.30;1.30;;;12.50;99.90;;;;;;5013970;28;20203;-85
2021/10/04 06:17:25;;;;;;;1.67;1.25;;;12.40;99.90;;;;;;5016460;28;20203;-79
2021/10/04 06:19:51;;;;;;;3.90;1.35;;;12.30;99.90;;;;;;5013203;28;20208;-78
2021/10/04 06:22:17;;;;;;;4.57;0.70;;;12.30;99.90;;;;;;5012356;28;20272;-81
2021/10/04 06:24:43;;;;;;;3.47;0.93;;;12.30;99.90;;;;;;5011407;28;20208;-81
2021/10/04 06:27:09;;;;;;;4.70;0.90;;;12.30;99.90;;;;;;5013192;28;20200;-83
2021/10/04 06:29:35;;;;;;;1.40;1.05;;;12.40;99.90;;;;;;5012632;28;20226;-80
2021/10/04 06:32:01;;;;;;;5.18;1.02;;;12.30;99.90;;;;;;5013432;28;20164;-84
2021/10/04 06:34:26;;;;;;;6.95;1.10;;;12.10;99.90;;;;;;5015575;28;20256;-84
2021/10/04 06:36:52;;;;;;;2.53;1.35;;;12.20;99.90;;;;;;5023043;28;20165;-83
2021/10/04 06:39:18;;;;;;;5.75;1.63;;;12.20;99.90;;;;;;5020472;28;20208;-83
2021/10/04 06:41:43;;;;;;;4.30;1.08;;;12.20;99.90;;;;;;5016412;28;20169;-83
2021/10/04 06:44:09;;;;;;;6.60;0.80;;;12.20;99.90;;;;;;5024499;28;20149;-81
2021/10/04 06:46:37;;;;;;;2.13;1.05;;;12.30;99.90;;;;;;5025456;28;20164;-82
2021/10/04 06:49:03;;;;;;;4.40;1.58;;;12.30;99.90;;;;;;5031620;28;20188;-79
2021/10/04 06:51:29;;;;;;;3.42;1.55;;;12.40;99.90;;;;;;5033478;28;20163;-80
2021/10/04 06:53:54;;;;;;;3.15;1.00;;;12.40;99.90;;;;;;5034859;28;20180;-80
2021/10/04 06:56:20;;;;;;;3.60;0.80;;;12.50;99.90;;;;;;5034428;28;20218;-78
2021/10/04 06:58:46;;;;;;;5.03;1.20;;;12.50;99.90;;;;;;5028141;28;20239;-78
2021/10/04 07:01:11;;;;;;;8.93;1.23;;;12.60;99.90;;;;;;5011646;28;20598;-79
2021/10/04 07:03:37;;;;;;;8.55;1.45;;;12.70;99.90;;;;;;5012943;28;20176;-79
2021/10/04 07:06:04;;;;;;;1.88;1.15;;;12.70;99.90;;;;;;5011246;28;20179;-80
2021/10/04 07:08:30;;;;;;;2.80;1.08;;;12.80;99.90;;;;;;5012875;28;20251;-85
2021/10/04 07:10:56;;;;;;;4.55;1.17;;;12.70;99.90;;;;;;5012903;28;20176;-85
2021/10/04 07:13:22;;;;;;;5.70;1.00;;;12.90;99.90;;;;;;5013545;28;20324;-85
2021/10/04 07:15:48;;;;;;;3.85;1.00;;;13.00;99.90;;;;;;5013508;28;20251;-85
2021/10/04 07:18:14;;;;;;;1.50;0.60;;;13.00;99.90;;;;;;5012950;28;20347;-85
2021/10/04 07:20:41;;;;;;;4.20;1.33;;;13.10;99.90;;;;;;5012714;28;20195;-84
2021/10/04 07:23:07;;;;;;;3.78;1.33;;;13.10;99.90;;;;;;5013113;28;20176;-85
2021/10/04 07:25:33;;;;;;;3.38;0.80;;;13.20;99.90;;;;;;5012956;28;20160;-84
2021/10/04 07:28:00;;;;;;;2.08;1.20;;;13.30;99.90;;;;;;5013046;28;20161;-84
2021/10/04 07:30:26;;;;;;;9.35;1.45;;;13.30;99.90;;;;;;5012783;28;20196;-80
2021/10/04 07:32:52;;;;;;;6.53;1.27;;;13.30;99.90;;;;;;5013225;28;20183;-81
2021/10/04 07:35:19;;;;;;;13.63;1.20;;;13.30;99.90;;;;;;5016665;28;20250;-81
2021/10/04 07:37:44;;;;;;;3.95;1.15;;;13.40;99.90;;;;;;5016683;28;20164;-80
2021/10/04 07:40:11;;;;;;;5.05;0.85;;;13.50;99.90;;;;;;5016612;28;20199;-80
2021/10/04 07:42:37;;;;;;;3.42;0.85;;;13.60;99.90;;;;;;5015183;28;20251;-79
2021/10/04 07:45:03;;;;;;;5.10;1.20;;;13.70;99.90;;;;;;5016419;28;20303;-79
2021/10/04 07:47:29;;;;;;;4.80;1.27;;;13.70;99.90;;;;;;5016165;28;20199;-79
2021/10/04 07:49:54;;;;;;;10.55;1.80;;;13.80;99.90;;;;;;5016156;28;20227;-79
2021/10/04 07:52:21;;;;;;;7.50;1.35;;;13.90;99.90;;;;;;5016349;28;20168;-79
2021/10/04 07:54:47;;;;;;;3.05;1.00;;;13.90;99.90;;;;;;5016337;28;20153;-79
2021/10/04 07:57:13;;;;;;;5.75;1.00;;;13.80;99.90;;;;;;5016326;28;20653;-79
2021/10/04 07:59:42;;;;;;;9.73;1.00;;;14.00;99.90;;;;;;5015749;28;20214;-83
2021/10/04 08:02:08;;;;;;;3.80;1.13;;;14.10;99.90;;;;;;5015831;28;20187;-80
2021/10/04 08:04:35;;;;;;;7.50;1.13;;;14.10;99.90;;;;;;5016029;28;20183;-81
2021/10/04 08:07:01;;;;;;;8.45;1.10;;;14.20;99.90;;;;;;5015902;28;20501;-82
2021/10/04 08:09:26;;;;;;;6.78;1.88;;;14.30;99.90;;;;;;5015693;28;20196;-81
2021/10/04 08:11:52;;;;;;;4.28;1.38;;;14.20;99.90;;;;;;5015465;28;20176;-80
2021/10/04 08:14:18;;;;;;;11.35;1.58;;;14.30;99.90;;;;;;5015677;28;20161;-83
2021/10/04 08:16:43;;;;;;;3.30;1.17;;;14.40;99.90;;;;;;5015770;28;20501;-79
2021/10/04 08:19:09;;;;;;;2.83;0.70;;;14.30;99.90;;;;;;5015527;28;20251;-79
2021/10/04 08:21:35;;;;;;;4.70;1.33;;;14.40;99.90;;;;;;5015676;28;20251;-84
2021/10/04 08:24:01;;;;;;;5.90;1.30;;;14.40;99.90;;;;;;5015805;28;20210;-81
2021/10/04 08:26:27;;;;;;;8.07;1.17;;;14.40;99.90;;;;;;5015737;28;20524;-82
2021/10/04 08:28:53;;;;;;;5.28;0.85;;;14.40;99.90;;;;;;5015546;28;20188;-82
2021/10/04 08:31:20;;;;;;;1.80;0.93;;;14.60;99.90;;;;;;5015615;28;20172;-81
2021/10/04 08:33:45;;;;;;;6.05;1.33;;;14.70;99.90;;;;;;5015525;28;20169;-82
2021/10/04 08:36:12;;;;;;;8.73;0.82;;;14.90;99.90;;;;;;5015423;28;20234;-82
2021/10/04 08:38:37;;;;;;;8.85;1.05;;;14.90;99.90;;;;;;5014770;28;20572;-82
2021/10/04 08:41:04;;;;;;;5.28;1.00;;;15.00;99.90;;;;;;5014989;28;20161;-82
2021/10/04 08:43:30;;;;;;;8.07;1.10;;;15.00;99.90;;;;;;5015128;28;20203;-80
2021/10/04 08:45:59;;;;;;;2.58;1.10;;;15.00;99.90;;;;;;5014994;28;20259;-83
2021/10/04 08:48:26;;;;;;;3.13;0.90;;;15.20;99.90;;;;;;5015107;28;20596;-82
2021/10/04 08:50:53;;;;;;;6.00;1.10;;;15.20;99.90;;;;;;5014956;28;20569;-83
2021/10/04 08:53:19;;;;;;;6.60;1.00;;;15.40;99.90;;;;;;5013894;28;20168;-81
2021/10/04 08:55:45;;;;;;;4.28;0.57;;;15.50;99.90;;;;;;5014880;28;20177;-80
2021/10/04 08:58:11;;;;;;;10.95;2.10;;;15.60;99.90;;;;;;5014931;28;20227;-83
2021/10/04 09:00:37;;;;;;;3.67;1.52;;;15.60;99.90;;;;;;5014851;28;20189;-80
2021/10/04 09:03:04;;;;;;;10.13;1.30;;;15.70;99.90;;;;;;5014510;28;20247;-81
2021/10/04 09:05:31;;;;;;;5.47;1.00;;;15.70;99.90;;;;;;5014646;28;20560;-81
2021/10/04 09:08:07;;;;;;;10.40;1.20;;;15.70;99.90;;;;;;5014858;28;20256;-81
2021/10/04 09:10:34;;;;;;;8.30;1.15;;;15.90;99.90;;;;;;5014563;28;20188;-84
2021/10/04 09:13:04;;;;;;;2.72;1.00;;;16.00;99.90;;;;;;5014878;28;20633;-84
2021/10/04 09:15:40;;;;;;;4.38;1.33;;;16.00;99.90;;;;;;5015097;28;20251;-83
2021/10/04 09:18:06;;;;;;;4.68;0.70;;;16.20;99.90;;;;;;5014991;28;20199;-83
2021/10/04 09:20:55;;;;;;;2.13;1.17;;;16.20;99.90;;;;;;5014910;28;20192;-84
2021/10/04 09:23:46;;;;;;;6.97;1.00;;;16.20;99.90;;;;;;5014295;28;20525;-82
2021/10/04 09:26:30;;;;;;;11.18;1.00;;;16.30;99.90;;;;;;5014441;28;20160;-81
2021/10/04 09:29:00;;;;;;;3.33;0.98;;;16.30;99.90;;;;;;5014188;28;20237;-82
2021/10/04 09:31:29;;;;;;;8.52;0.85;;;16.50;99.90;;;;;;5014468;28;20165;-83
2021/10/04 09:34:06;;;;;;;5.05;0.90;;;16.70;99.90;;;;;;5014093;28;20183;-83
2021/10/04 09:36:35;;;;;;;4.20;0.90;;;16.70;99.90;;;;;;5012852;28;20585;-82
2021/10/04 09:39:18;;;;;;;7.68;1.17;;;16.70;99.90;;;;;;5014488;28;20293;-80
2021/10/04 09:42:02;;;;;;;4.10;1.00;;;16.80;99.90;;;;;;5013885;28;20173;-82
2021/10/04 09:45:00;;;;;;;4.93;1.10;;;16.80;99.90;;;;;;5013956;28;20184;-81
2021/10/04 09:47:35;;;;;;;4.30;0.70;;;16.70;99.90;;;;;;5014433;28;20163;-81
2021/10/04 09:50:05;;;;;;;3.05;0.80;;;16.70;99.90;;;;;;5014429;28;20548;-77
2021/10/04 09:52:50;;;;;;;4.68;1.20;;;16.70;99.90;;;;;;5014082;28;20173;-83
2021/10/04 09:55:37;;;;;;;4.63;1.10;;;16.70;99.90;;;;;;5013720;28;20176;-79
2021/10/04 09:58:20;;;;;;;9.10;1.70;;;16.70;99.90;;;;;;5013075;28;20214;-81
2021/10/04 10:01:00;;;;;;;3.92;0.93;;;16.70;99.90;;;;;;5013466;28;20192;-82
2021/10/04 10:03:38;;;;;;;5.38;0.93;;;16.60;99.90;;;;;;5013579;28;20566;-81
2021/10/04 10:06:04;;;;;;;4.22;1.05;;;16.70;99.90;;;;;;5013731;28;20187;-80
2021/10/04 10:08:30;;;;;;;6.40;1.00;;;16.70;99.90;;;;;;5012996;28;20285;-82
2021/10/04 10:11:02;;;;;;;12.73;1.55;;;16.50;99.90;;;;;;5013211;28;20173;-79
2021/10/04 10:13:29;;;;;;;7.93;1.20;;;16.50;99.90;;;;;;5013190;28;20171;-80
2021/10/04 10:16:04;;;;;;;8.88;1.00;;;16.60;99.90;;;;;;5011912;28;20300;-84
2021/10/04 10:18:45;;;;;;;4.40;1.58;;;16.60;99.90;;;;;;5011554;28;20204;-85
2021/10/04 10:21:25;;;;;;;5.78;0.70;;;16.70;99.90;;;;;;5011468;28;20769;-84
2021/10/04 10:24:00;;;;;;;4.90;0.90;;;16.90;99.90;;;;;;5013522;28;20164;-82
2021/10/04 10:26:26;;;;;;;4.50;1.10;;;17.10;99.90;;;;;;5012178;28;20214;-80
2021/10/04 10:29:19;;;;;;;3.85;0.90;;;17.00;99.90;;;;;;5013302;28;20188;-83
2021/10/04 10:31:51;;;;;;;1.55;0.55;;;17.00;99.90;;;;;;5013232;28;20636;-79
2021/10/04 10:34:39;;;;;;;3.78;1.40;;;17.10;99.90;;;;;;5012418;28;20192;-82
2021/10/04 10:37:10;;;;;;;2.88;1.30;;;17.20;99.90;;;;;;5012967;28;20179;-79
2021/10/04 10:39:56;;;;;;;3.33;0.60;;;17.30;99.90;;;;;;5012741;28;20216;-79
2021/10/04 10:42:43;;;;;;;7.40;1.30;;;17.40;99.90;;;;;;5012652;28;20176;-78
2021/10/04 10:45:13;;;;;;;3.58;0.82;;;17.30;99.90;;;;;;5011884;28;20168;-79
2021/10/04 10:47:39;;;;;;;5.03;1.00;;;17.30;99.90;;;;;;5013099;28;20270;-79
2021/10/04 10:50:14;;;;;;;5.75;0.80;;;17.30;99.90;;;;;;5011360;28;20196;-85
2021/10/04 10:52:42;;;;;;;3.33;1.08;;;17.00;99.90;;;;;;5012737;28;20175;-79
2021/10/04 10:55:20;;;;;;;4.05;1.30;;;17.10;99.90;;;;;;5013112;28;20168;-79
2021/10/04 10:57:58;;;;;;;6.90;1.00;;;17.20;99.90;;;;;;5012596;28;20168;-79
2021/10/04 11:00:41;;;;;;;3.88;1.05;;;17.20;99.90;;;;;;5012558;28;20196;-83
2021/10/04 11:03:21;;;;;;;2.80;0.82;;;17.20;99.90;;;;;;5012271;28;20176;-80
2021/10/04 11:05:50;;;;;;;13.25;1.08;;;17.50;99.90;;;;;;5012664;28;20236;-82
2021/10/04 11:08:41;;;;;;;3.63;1.02;;;17.70;99.90;;;;;;5011010;28;20556;-82
2021/10/04 11:11:06;;;;;;;4.05;0.77;;;17.60;99.90;;;;;;5005708;28;20540;-79
2021/10/04 11:13:42;;;;;;;8.68;0.93;;;17.60;99.90;;;;;;5012473;28;20172;-75
2021/10/04 11:16:10;;;;;;;7.43;1.30;;;17.60;99.90;;;;;;5011219;28;20626;-82
2021/10/04 11:18:45;;;;;;;4.95;0.85;;;17.50;99.90;;;;;;5012054;28;20212;-78
2021/10/04 11:21:22;;;;;;;4.25;1.10;;;17.40;99.90;;;;;;5012470;28;20176;-79
2021/10/04 11:23:51;;;;;;;2.15;0.73;;;17.20;99.90;;;;;;5012554;28;20575;-83
2021/10/04 11:26:19;;;;;;;8.85;1.20;;;17.40;99.90;;;;;;5011449;28;20172;-84
2021/10/04 11:28:48;;;;;;;8.55;1.55;;;17.60;99.90;;;;;;5012833;28;20207;-83
2021/10/04 11:31:18;;;;;;;12.23;2.33;;;17.70;99.90;;;;;;5012330;28;20247;-85
2021/10/04 11:33:55;;;;;;;4.13;0.98;;;17.60;99.90;;;;;;5013047;28;20173;-82
2021/10/04 11:36:24;;;;;;;9.30;1.42;;;17.50;99.90;;;;;;5012456;28;20184;-83
2021/10/04 11:38:52;;;;;;;4.25;1.00;;;17.60;99.90;;;;;;5012386;28;20736;-81
2021/10/04 11:41:32;;;;;;;7.60;1.70;;;17.70;99.90;;;;;;5012248;28;20165;-84
2021/10/04 11:44:04;;;;;;;8.75;1.30;;;17.80;99.90;;;;;;5012975;28;20172;-81
2021/10/04 11:46:33;;;;;;;3.22;1.25;;;18.10;99.90;;;;;;5011901;28;20195;-83
2021/10/04 11:49:18;;;;;;;4.25;1.15;;;18.00;99.90;;;;;;5012237;28;20318;-83
2021/10/04 11:51:50;;;;;;;2.80;0.90;;;18.10;99.90;;;;;;5011625;28;20168;-84
2021/10/04 11:54:38;;;;;;;5.43;1.33;;;18.10;99.90;;;;;;5013159;28;20161;-85
2021/10/04 11:57:05;;;;;;;8.88;1.23;;;18.10;99.90;;;;;;5008904;28;20642;-83
2021/10/04 11:59:45;;;;;;;13.13;1.17;;;18.00;99.90;;;;;;5012129;28;20306;-81
2021/10/04 12:02:23;;;;;;;7.22;1.08;;;18.10;99.90;;;;;;5012075;28;20157;-81
2021/10/04 12:04:50;;;;;;;2.50;1.00;;;18.20;99.90;;;;;;5011911;28;20168;-82
2021/10/04 12:07:17;;;;;;;1.90;0.80;;;18.30;99.90;;;;;;5013420;28;20578;-84
2021/10/04 12:09:42;;;;;;;1.83;0.70;;;18.20;99.90;;;;;;5013079;28;20188;-86
2021/10/04 12:12:08;;;;;;;3.70;0.68;;;18.00;99.90;;;;;;5013667;28;20626;-83
2021/10/04 12:14:37;;;;;;;4.47;0.93;;;18.10;99.90;;;;;;5013038;28;20171;-78
2021/10/04 12:17:04;;;;;;;6.63;1.52;;;18.10;99.90;;;;;;5012531;28;20168;-84
2021/10/04 12:19:30;;;;;;;6.07;1.15;;;18.20;99.90;;;;;;5011879;28;20225;-82
2021/10/04 12:21:56;;;;;;;4.60;0.98;;;18.40;99.90;;;;;;5015716;28;20529;-81
2021/10/04 12:24:39;;;;;;;5.03;1.23;;;18.40;99.90;;;;;;5015713;28;20172;-82
2021/10/04 12:27:09;;;;;;;3.70;1.20;;;18.50;99.90;;;;;;5016183;28;20219;-82
2021/10/04 12:30:00;;;;;;;12.05;0.60;;;18.40;99.90;;;;;;5016388;28;20200;-82
2021/10/04 12:32:37;;;;;;;8.77;1.40;;;18.20;99.90;;;;;;5016043;28;20187;-81
2021/10/04 12:35:15;;;;;;;2.53;0.80;;;18.00;99.90;;;;;;5014970;28;20212;-78
2021/10/04 12:37:51;;;;;;;5.38;1.15;;;18.20;99.90;;;;;;5015091;28;20255;-79
2021/10/04 12:40:22;;;;;;;19.23;0.80;;;18.30;99.90;;;;;;5015633;28;20210;-81
2021/10/04 12:42:48;;;;;;;4.25;0.80;;;18.40;99.90;;;;;;5015084;28;20167;-81
2021/10/04 12:45:14;;;;;;;4.55;0.77;;;18.40;99.90;;;;;;5006786;28;20189;-83
2021/10/04 12:48:12;;;;;;;14.43;1.50;;;18.50;99.90;;;;;;5010160;28;20185;-79
2021/10/04 12:50:39;;;;;;;6.65;1.27;;;18.50;99.90;;;;;;5011854;28;20188;-78
2021/10/04 12:53:14;;;;;;;4.57;1.08;;;18.60;99.90;;;;;;5011569;28;20168;-78